Time;durP1;ratioP1;P1;durP2;ratioP2;P2;SDS_P1;SDS_P2;PMS_P1;PMS_P2;Temp;Humidity;BMP_temperature;BMP_pressure;BME280_temperature;BME280_humidity;BME280_pressure;Samples;Min_cycle;Max_cycle;Signal;HPM_P1;HPM_P2
2022/07/12 00:02:02;;;;;;;;;35.33;34.00;23.70;36.40;;;;;;5094523;28;8847;-80
2022/07/12 00:04:28;;;;;;;;;36.33;31.00;23.70;36.60;;;;;;5094308;28;9497;-79
2022/07/12 00:06:54;;;;;;;;;29.00;27.33;23.60;36.50;;;;;;5094290;28;8823;-80
2022/07/12 00:09:20;;;;;;;;;27.67;26.33;23.60;36.40;;;;;;5094163;28;8796;-80
2022/07/12 00:11:46;;;;;;;;;25.67;23.33;23.60;36.30;;;;;;5094348;28;8764;-80
2022/07/12 00:14:12;;;;;;;;;24.33;21.67;23.60;36.20;;;;;;5094177;28;8798;-84
2022/07/12 00:16:38;;;;;;;;;21.33;21.33;23.60;36.00;;;;;;5094565;28;8860;-82
2022/07/12 00:19:03;;;;;;;;;15.67;15.00;23.60;36.00;;;;;;5094257;28;8866;-82
2022/07/12 00:21:30;;;;;;;;;17.00;16.67;23.60;36.10;;;;;;5096556;28;8752;-83
2022/07/12 00:23:55;;;;;;;;;17.67;16.67;23.50;36.10;;;;;;5098415;28;8775;-82
2022/07/12 00:26:22;;;;;;;;;15.67;15.67;23.50;35.90;;;;;;5097976;28;8776;-81
2022/07/12 00:28:48;;;;;;;;;18.67;18.67;23.50;35.80;;;;;;5080113;28;8776;-83
2022/07/12 00:31:14;;;;;;;;;16.67;16.67;23.50;35.80;;;;;;5098226;28;8845;-82
2022/07/12 00:33:40;;;;;;;;;16.67;16.67;23.50;36.10;;;;;;5098204;28;9413;-82
2022/07/12 00:36:06;;;;;;;;;19.33;18.33;23.20;36.90;;;;;;5097850;28;8752;-82
2022/07/12 00:38:31;;;;;;;;;19.67;19.67;23.10;37.30;;;;;;5097866;28;8775;-80
2022/07/12 00:40:57;;;;;;;;;20.00;20.00;23.00;37.40;;;;;;5097771;28;8760;-81
2022/07/12 00:43:23;;;;;;;;;24.67;23.00;23.20;37.40;;;;;;5097964;28;8764;-81
2022/07/12 00:45:49;;;;;;;;;24.00;22.33;23.00;37.70;;;;;;5097642;28;8886;-79
2022/07/12 00:48:18;;;;;;;;;17.67;16.67;23.00;37.90;;;;;;5096192;28;8796;-79
2022/07/12 00:50:47;;;;;;;;;25.00;22.67;23.10;37.80;;;;;;5097622;28;8760;-80
2022/07/12 00:53:14;;;;;;;;;28.33;26.67;22.90;38.10;;;;;;5097722;28;8756;-79
2022/07/12 00:55:40;;;;;;;;;24.67;24.67;22.90;38.10;;;;;;5079576;28;9452;-79
2022/07/12 00:58:06;;;;;;;;;24.67;24.67;22.90;38.20;;;;;;5097462;28;8768;-82
2022/07/12 01:00:32;;;;;;;;;26.00;23.67;23.00;37.90;;;;;;5097397;28;8763;-82
2022/07/12 01:03:00;;;;;;;;;24.33;24.33;22.80;38.10;;;;;;5097370;28;8768;-80
2022/07/12 01:05:30;;;;;;;;;26.00;26.00;22.90;38.10;;;;;;5079304;28;8802;-81
2022/07/12 01:07:56;;;;;;;;;26.67;26.67;22.90;38.00;;;;;;5097565;28;8782;-82
2022/07/12 01:10:23;;;;;;;;;26.00;21.00;22.80;38.10;;;;;;5097772;28;8752;-82
2022/07/12 01:12:50;;;;;;;;;25.00;24.00;22.80;38.20;;;;;;5097577;28;9407;-81
2022/07/12 01:15:16;;;;;;;;;26.67;25.33;22.50;38.90;;;;;;5097110;28;8775;-83
2022/07/12 01:17:45;;;;;;;;;28.33;27.00;22.30;39.40;;;;;;5097038;28;8788;-81
2022/07/12 01:20:12;;;;;;;;;19.00;19.00;22.30;39.20;;;;;;5097151;28;8795;-84
2022/07/12 01:22:41;;;;;;;;;26.00;24.67;22.30;39.40;;;;;;5096969;28;8751;-83
2022/07/12 01:25:07;;;;;;;;;22.00;21.33;22.30;39.30;;;;;;5097101;28;8776;-80
2022/07/12 01:27:33;;;;;;;;;23.00;19.00;22.30;39.20;;;;;;5096957;28;8780;-83
2022/07/12 01:30:02;;;;;;;;;14.33;14.33;22.40;39.10;;;;;;5096919;28;8748;-82
2022/07/12 01:32:30;;;;;;;;;22.67;20.00;22.40;38.80;;;;;;5095817;28;8760;-82
2022/07/12 01:34:57;;;;;;;;;23.00;22.67;22.20;39.10;;;;;;5079202;28;8776;-83
2022/07/12 01:37:25;;;;;;;;;24.33;21.33;22.40;39.00;;;;;;5096759;28;9394;-82
2022/07/12 01:39:57;;;;;;;;;22.67;22.67;22.40;38.80;;;;;;5096844;28;8802;-82
2022/07/12 01:42:24;;;;;;;;;19.33;19.33;22.40;38.80;;;;;;5096689;28;8837;-83
2022/07/12 01:44:51;;;;;;;;;22.33;21.00;22.60;38.50;;;;;;5096922;28;9385;-81
2022/07/12 01:47:18;;;;;;;;;22.67;22.67;22.60;38.40;;;;;;5096352;28;8796;-80
2022/07/12 01:49:44;;;;;;;;;20.33;20.00;22.60;38.30;;;;;;5096706;28;8788;-81
2022/07/12 01:52:11;;;;;;;;;21.00;20.33;22.60;38.30;;;;;;5096364;28;8873;-81
2022/07/12 01:54:37;;;;;;;;;17.67;16.33;22.50;38.60;;;;;;5096406;28;8857;-81
2022/07/12 01:57:06;;;;;;;;;18.33;18.00;22.50;38.60;;;;;;5096233;28;8752;-80
2022/07/12 01:59:32;;;;;;;;;16.00;14.33;22.50;38.60;;;;;;5096301;28;8768;-81
2022/07/12 02:01:59;;;;;;;;;25.00;19.67;22.50;38.60;;;;;;5096272;28;8748;-80
2022/07/12 02:04:25;;;;;;;;;23.33;22.33;22.50;38.90;;;;;;5096505;28;8760;-80
2022/07/12 02:06:51;;;;;;;;;25.00;24.00;22.50;38.30;;;;;;5096021;28;8799;-79
2022/07/12 02:09:17;;;;;;;;;26.67;22.67;22.60;38.40;;;;;;5078128;28;8795;-79
2022/07/12 02:11:45;;;;;;;;;22.00;19.33;22.40;38.80;;;;;;5096008;28;8790;-79
2022/07/12 02:14:12;;;;;;;;;24.33;21.67;22.30;38.90;;;;;;5096014;28;8771;-79
2022/07/12 02:16:38;;;;;;;;;22.67;20.33;22.10;39.40;;;;;;5095914;28;8755;-79
2022/07/12 02:19:04;;;;;;;;;18.67;18.33;22.20;40.30;;;;;;5096027;28;8811;-79
2022/07/12 02:21:30;;;;;;;;;11.33;11.33;22.20;39.40;;;;;;5096177;28;8782;-80
2022/07/12 02:23:56;;;;;;;;;19.00;18.00;22.30;39.10;;;;;;5077892;28;8791;-80
2022/07/12 02:26:22;;;;;;;;;16.67;15.67;22.30;39.00;;;;;;5096012;28;8799;-80
2022/07/12 02:28:47;;;;;;;;;16.33;16.33;22.30;39.00;;;;;;5077783;28;9423;-79
2022/07/12 02:31:13;;;;;;;;;4.00;4.00;22.20;39.10;;;;;;5096092;28;8860;-79
2022/07/12 02:33:39;;;;;;;;;20.33;17.33;22.30;39.00;;;;;;5096162;28;8780;-79
2022/07/12 02:36:05;;;;;;;;;17.67;17.67;22.20;39.30;;;;;;5095574;28;8840;-80
2022/07/12 02:38:31;;;;;;;;;21.33;19.33;22.10;39.40;;;;;;5095634;28;8752;-80
2022/07/12 02:40:57;;;;;;;;;12.67;12.67;22.00;40.60;;;;;;5095552;28;8768;-80
2022/07/12 02:43:24;;;;;;;;;17.33;16.33;22.00;39.70;;;;;;5095412;28;8902;-80
2022/07/12 02:45:50;;;;;;;;;18.00;16.67;22.00;39.60;;;;;;5095347;28;8796;-79
2022/07/12 02:48:16;;;;;;;;;17.67;17.67;22.10;39.60;;;;;;5095590;28;8806;-80
2022/07/12 02:50:43;;;;;;;;;16.67;15.67;22.00;39.60;;;;;;5095546;28;8852;-80
2022/07/12 02:53:10;;;;;;;;;13.00;12.00;21.90;40.20;;;;;;5095352;28;9386;-80
2022/07/12 02:55:36;;;;;;;;;16.33;16.33;21.80;40.40;;;;;;5095252;28;8882;-80
2022/07/12 02:58:03;;;;;;;;;20.67;17.00;21.70;40.60;;;;;;5095276;28;8747;-79
2022/07/12 03:00:29;;;;;;;;;16.67;16.67;21.60;40.70;;;;;;5095208;28;8843;-80
2022/07/12 03:02:55;;;;;;;;;15.00;15.00;21.70;40.60;;;;;;5095123;28;8763;-80
2022/07/12 03:05:21;;;;;;;;;15.00;15.00;21.80;40.40;;;;;;5094964;28;9486;-80
2022/07/12 03:07:47;;;;;;;;;15.00;14.67;21.70;40.50;;;;;;5094994;28;8776;-79
2022/07/12 03:10:13;;;;;;;;;17.33;16.00;21.70;40.70;;;;;;5076903;28;8767;-79
2022/07/12 03:12:38;;;;;;;;;16.00;16.00;21.70;40.50;;;;;;5094852;28;8767;-78
2022/07/12 03:15:05;;;;;;;;;19.67;18.67;21.60;40.80;;;;;;5094870;28;8832;-79
2022/07/12 03:17:32;;;;;;;;;17.00;17.00;21.60;40.70;;;;;;5094842;28;8934;-80
2022/07/12 03:19:58;;;;;;;;;17.00;17.00;21.70;40.40;;;;;;5094706;28;8908;-79
2022/07/12 03:22:24;;;;;;;;;16.67;16.67;21.80;40.30;;;;;;5094864;28;8767;-80
2022/07/12 03:24:50;;;;;;;;;16.67;16.67;21.90;40.10;;;;;;5094781;28;8772;-79
2022/07/12 03:27:17;;;;;;;;;22.33;18.00;21.80;40.20;;;;;;5094688;28;8814;-80
2022/07/12 03:29:43;;;;;;;;;21.00;20.33;21.80;40.20;;;;;;5094947;28;8772;-80
2022/07/12 03:32:09;;;;;;;;;23.67;21.67;21.80;40.30;;;;;;5094619;28;9414;-80
2022/07/12 03:34:36;;;;;;;;;16.33;16.33;21.80;40.30;;;;;;5094982;28;8874;-80
2022/07/12 03:37:02;;;;;;;;;16.67;16.00;21.80;40.40;;;;;;5076760;28;8779;-79
2022/07/12 03:39:28;;;;;;;;;22.67;22.67;21.90;40.10;;;;;;5094623;28;8763;-80
2022/07/12 03:41:54;;;;;;;;;17.67;16.67;21.90;41.00;;;;;;5094560;28;8787;-79
2022/07/12 03:44:20;;;;;;;;;19.00;16.00;22.00;39.80;;;;;;5094760;28;8764;-79
2022/07/12 03:46:47;;;;;;;;;23.00;19.67;22.00;39.60;;;;;;5094689;28;9508;-79
2022/07/12 03:49:13;;;;;;;;;25.67;22.00;22.00;39.60;;;;;;5094836;28;8795;-80
2022/07/12 03:51:39;;;;;;;;;17.33;17.00;21.90;39.90;;;;;;5094521;28;8791;-80
2022/07/12 03:54:07;;;;;;;;;24.67;21.33;21.80;40.40;;;;;;5076622;28;8760;-79
2022/07/12 03:59:21;;;;;;;;;14.00;14.00;21.50;41.20;;;;;;5098712;28;9390;-80
2022/07/12 04:01:47;;;;;;;;;17.67;17.67;21.40;41.00;;;;;;5098062;28;9426;-80
2022/07/12 04:04:13;;;;;;;;;14.67;12.67;21.40;41.10;;;;;;5098550;28;8770;-80
2022/07/12 04:06:39;;;;;;;;;11.33;10.33;21.40;41.30;;;;;;5098359;28;8825;-80
2022/07/12 04:09:05;;;;;;;;;16.67;16.67;21.50;40.90;;;;;;5098461;28;8752;-81
2022/07/12 04:11:32;;;;;;;;;14.33;14.00;21.50;40.80;;;;;;5098364;28;8839;-80
2022/07/12 04:13:59;;;;;;;;;12.67;12.67;21.50;41.00;;;;;;5098706;28;8756;-80
2022/07/12 04:16:25;;;;;;;;;15.00;12.33;21.50;41.30;;;;;;5098574;28;8752;-80
2022/07/12 04:18:50;;;;;;;;;16.00;15.33;21.50;41.20;;;;;;5098458;28;8804;-79
2022/07/12 04:21:16;;;;;;;;;15.00;15.00;21.50;41.20;;;;;;5098325;28;8827;-80
2022/07/12 04:23:42;;;;;;;;;13.00;11.67;21.50;41.30;;;;;;5098151;28;8783;-79
2022/07/12 04:26:08;;;;;;;;;11.00;11.00;21.70;41.20;;;;;;5098260;28;8804;-80
2022/07/12 04:28:35;;;;;;;;;11.33;11.33;21.70;40.80;;;;;;5098280;28;8767;-80
2022/07/12 04:31:02;;;;;;;;;11.33;11.33;21.80;41.70;;;;;;5097977;28;8794;-80
2022/07/12 04:33:28;;;;;;;;;14.67;14.67;21.80;40.50;;;;;;5098484;28;8787;-80
2022/07/12 04:35:54;;;;;;;;;14.00;13.33;21.90;40.50;;;;;;5098089;28;8780;-80
2022/07/12 04:38:20;;;;;;;;;11.67;9.33;21.90;40.60;;;;;;5097897;28;8891;-80
2022/07/12 04:40:45;;;;;;;;;13.33;13.33;21.80;40.90;;;;;;5098085;28;8867;-79
2022/07/12 04:43:11;;;;;;;;;10.00;10.00;21.60;41.60;;;;;;5098116;28;8768;-79
2022/07/12 04:45:37;;;;;;;;;13.00;11.33;21.70;41.50;;;;;;5098219;28;9437;-80
2022/07/12 04:48:03;;;;;;;;;13.67;13.67;21.80;41.30;;;;;;5097943;28;8788;-79
2022/07/12 04:50:29;;;;;;;;;12.33;12.33;21.80;41.50;;;;;;5097829;28;8779;-81
2022/07/12 04:52:55;;;;;;;;;11.67;9.67;21.80;41.50;;;;;;5097882;28;9409;-80
2022/07/12 04:55:20;;;;;;;;;3.67;3.00;21.80;41.80;;;;;;5097855;28;8760;-80
2022/07/12 04:57:46;;;;;;;;;10.33;10.33;21.60;42.50;;;;;;5097558;28;8740;-81
2022/07/12 05:00:13;;;;;;;;;11.00;10.00;21.50;42.50;;;;;;5079454;28;8768;-80
2022/07/12 05:02:39;;;;;;;;;7.33;7.33;21.50;42.90;;;;;;5097415;28;8779;-81
2022/07/12 05:05:05;;;;;;;;;9.00;9.00;21.50;42.90;;;;;;5079596;28;8895;-80
2022/07/12 05:07:31;;;;;;;;;9.33;9.33;21.50;42.90;;;;;;5096265;28;8787;-79
2022/07/12 05:09:57;;;;;;;;;10.00;10.00;21.30;43.50;;;;;;5097273;28;8794;-80
2022/07/12 05:12:23;;;;;;;;;11.67;10.67;21.20;44.00;;;;;;5097523;28;8787;-80
2022/07/12 05:14:48;;;;;;;;;13.00;13.00;21.10;44.30;;;;;;5097105;28;9397;-80
2022/07/12 05:17:14;;;;;;;;;9.00;9.00;21.30;43.90;;;;;;5097244;28;8779;-80
2022/07/12 05:19:40;;;;;;;;;5.67;5.67;21.40;43.40;;;;;;5097129;28;8779;-80
2022/07/12 05:22:06;;;;;;;;;9.67;9.67;21.40;43.70;;;;;;5096989;28;9171;-80
2022/07/12 05:24:32;;;;;;;;;10.00;10.00;21.50;43.20;;;;;;5079425;28;8760;-80
2022/07/12 05:26:58;;;;;;;;;13.00;11.33;21.50;43.50;;;;;;5096870;28;8799;-81
2022/07/12 05:29:23;;;;;;;;;9.67;9.67;21.50;43.20;;;;;;5097115;28;8882;-80
2022/07/12 05:31:49;;;;;;;;;10.33;10.33;21.20;43.80;;;;;;5096889;28;8748;-80
2022/07/12 05:34:15;;;;;;;;;11.33;10.33;21.20;44.10;;;;;;5096930;28;8771;-81
2022/07/12 05:36:41;;;;;;;;;13.67;13.33;21.00;44.70;;;;;;5097005;28;8772;-80
2022/07/12 05:39:07;;;;;;;;;10.00;10.00;20.90;45.50;;;;;;5096823;28;8791;-80
2022/07/12 05:41:33;;;;;;;;;12.00;10.33;20.90;45.10;;;;;;5096979;28;8760;-80
2022/07/12 05:43:58;;;;;;;;;9.67;9.67;21.00;45.10;;;;;;5096829;28;8802;-81
2022/07/12 05:46:24;;;;;;;;;7.00;7.00;21.40;43.90;;;;;;5096381;28;8783;-81
2022/07/12 05:48:50;;;;;;;;;11.33;9.00;21.40;43.90;;;;;;5096731;28;8772;-81
2022/07/12 05:54:07;;;;;;;;;9.67;9.67;21.20;44.90;;;;;;5065110;28;8810;-80
2022/07/12 05:56:33;;;;;;;;;9.00;9.00;21.20;45.10;;;;;;5096655;28;8764;-80
2022/07/12 05:58:59;;;;;;;;;8.33;8.33;21.20;45.20;;;;;;5096541;28;8790;-81
2022/07/12 06:01:25;;;;;;;;;9.00;9.00;21.30;44.80;;;;;;5096462;28;8857;-81
2022/07/12 06:03:51;;;;;;;;;9.33;9.33;21.10;45.20;;;;;;5096321;28;8858;-81
2022/07/12 06:06:16;;;;;;;;;8.00;8.00;21.20;45.40;;;;;;5078262;28;8954;-82
2022/07/12 06:08:42;;;;;;;;;10.00;10.00;21.20;45.20;;;;;;5096084;28;8772;-82
2022/07/12 06:11:08;;;;;;;;;13.33;12.00;21.20;45.20;;;;;;5095963;28;8787;-81
2022/07/12 06:13:34;;;;;;;;;11.33;11.00;21.40;44.80;;;;;;5096351;28;8771;-81
2022/07/12 06:16:00;;;;;;;;;9.33;8.00;21.60;44.30;;;;;;5096134;28;8794;-81
2022/07/12 06:18:26;;;;;;;;;10.00;10.00;21.70;44.20;;;;;;5095664;28;8894;-81
2022/07/12 06:20:52;;;;;;;;;9.00;9.00;21.80;43.90;;;;;;5095802;28;9476;-81
2022/07/12 06:23:18;;;;;;;;;9.33;9.00;21.80;43.60;;;;;;5095888;28;8764;-82
2022/07/12 06:25:45;;;;;;;;;7.00;6.33;21.90;43.30;;;;;;5096012;28;8787;-81
2022/07/12 06:28:11;;;;;;;;;10.00;10.00;21.90;42.60;;;;;;5096563;28;9424;-81
2022/07/12 06:30:37;;;;;;;;;10.00;10.00;21.90;42.80;;;;;;5095553;28;8760;-81
2022/07/12 06:33:03;;;;;;;;;10.33;8.00;22.00;43.00;;;;;;5095558;28;8788;-82
2022/07/12 06:35:29;;;;;;;;;6.00;6.00;22.10;42.60;;;;;;5095490;28;8878;-81
2022/07/12 06:37:55;;;;;;;;;10.67;9.33;22.10;42.20;;;;;;5095542;28;8789;-81
2022/07/12 06:40:21;;;;;;;;;10.00;10.00;22.10;42.70;;;;;;5095407;28;8832;-80
2022/07/12 06:42:48;;;;;;;;;8.00;6.00;22.00;42.90;;;;;;5095432;28;8837;-81
2022/07/12 06:45:14;;;;;;;;;10.33;10.00;22.00;42.60;;;;;;5095682;28;8768;-80
2022/07/12 06:47:40;;;;;;;;;8.00;8.00;22.20;42.80;;;;;;5095777;28;8818;-81
2022/07/12 06:50:06;;;;;;;;;7.00;7.00;22.10;42.90;;;;;;5077920;28;8768;-81
2022/07/12 06:52:32;;;;;;;;;7.00;7.00;22.20;42.50;;;;;;5095618;28;9374;-81
2022/07/12 06:54:58;;;;;;;;;7.67;7.67;22.10;42.40;;;;;;5094957;28;11444;-81
2022/07/12 06:57:26;;;;;;;;;6.33;4.00;22.00;42.00;;;;;;5095167;28;8764;-82
2022/07/12 06:59:52;;;;;;;;;6.00;6.00;22.10;41.80;;;;;;5077304;28;8779;-81
2022/07/12 07:02:18;;;;;;;;;8.67;8.00;22.10;41.60;;;;;;5095337;28;9378;-81
2022/07/12 07:04:44;;;;;;;;;7.33;7.00;22.00;41.70;;;;;;5095089;28;8772;-81
2022/07/12 07:07:09;;;;;;;;;6.00;6.00;22.00;41.90;;;;;;5094937;28;8811;-82
2022/07/12 07:09:35;;;;;;;;;7.67;7.67;21.90;41.80;;;;;;5094945;28;8752;-81
2022/07/12 07:12:02;;;;;;;;;6.67;6.67;21.90;41.60;;;;;;5077191;28;8760;-80
2022/07/12 07:14:27;;;;;;;;;5.00;5.00;22.10;40.70;;;;;;5094941;28;8775;-82
2022/07/12 07:16:54;;;;;;;;;9.00;9.00;22.20;40.60;;;;;;5094843;28;8790;-82
2022/07/12 07:19:21;;;;;;;;;9.00;9.00;22.30;40.20;;;;;;5094780;28;8827;-81
2022/07/12 07:21:46;;;;;;;;;10.00;10.00;22.40;40.30;;;;;;5094721;28;8767;-81
2022/07/12 07:24:12;;;;;;;;;9.00;8.00;22.40;40.50;;;;;;5094905;28;11428;-81
2022/07/12 07:26:38;;;;;;;;;8.00;8.00;22.50;40.10;;;;;;5094712;28;8791;-81
2022/07/12 07:31:48;;;;;;;;;9.00;8.00;22.30;40.60;;;;;;5094182;28;8732;-80
2022/07/12 07:34:14;;;;;;;;;8.33;7.00;22.40;40.40;;;;;;5094792;28;8795;-81
2022/07/12 07:36:40;;;;;;;;;9.67;9.00;22.50;40.20;;;;;;5094531;28;9299;-81
2022/07/12 07:39:06;;;;;;;;;8.00;6.00;22.20;41.10;;;;;;5094993;28;8772;-81
2022/07/12 07:41:32;;;;;;;;;10.00;8.00;22.20;41.10;;;;;;5094815;28;11409;-82
2022/07/12 07:43:57;;;;;;;;;10.33;10.00;22.30;41.10;;;;;;5094956;28;8756;-81
2022/07/12 07:46:23;;;;;;;;;10.00;9.00;22.50;40.70;;;;;;5094710;28;8822;-80
2022/07/12 07:48:49;;;;;;;;;8.33;8.00;22.70;40.40;;;;;;5094787;28;8796;-80
2022/07/12 07:51:15;;;;;;;;;12.00;11.00;22.80;40.50;;;;;;5094452;28;8772;-80
2022/07/12 07:53:40;;;;;;;;;9.33;8.33;22.80;41.00;;;;;;5094365;28;8883;-80
2022/07/12 07:56:06;;;;;;;;;9.33;8.67;22.70;40.10;;;;;;5094134;28;8795;-80
2022/07/12 07:58:32;;;;;;;;;8.67;8.67;22.80;40.10;;;;;;5076262;28;8779;-80
2022/07/12 08:00:58;;;;;;;;;9.00;8.00;22.80;39.90;;;;;;5094408;28;8871;-81
2022/07/12 08:03:25;;;;;;;;;10.33;9.67;22.70;39.40;;;;;;5094343;28;9140;-81
2022/07/12 08:05:50;;;;;;;;;8.00;8.00;22.60;38.80;;;;;;5094243;28;8895;-80
2022/07/12 08:08:17;;;;;;;;;10.00;7.67;22.60;39.10;;;;;;5094056;28;11385;-81
2022/07/12 08:10:43;;;;;;;;;9.00;9.00;22.70;38.90;;;;;;5094444;28;8779;-81
2022/07/12 08:13:09;;;;;;;;;8.00;7.00;22.70;38.80;;;;;;5076229;28;8788;-80
2022/07/12 08:15:35;;;;;;;;;11.33;8.33;22.70;38.40;;;;;;5075960;28;8782;-81
2022/07/12 08:18:03;;;;;;;;;7.00;7.00;22.60;38.40;;;;;;5094289;28;8788;-80
2022/07/12 08:20:28;;;;;;;;;7.33;7.33;22.70;38.20;;;;;;5094016;28;11486;-81
2022/07/12 08:22:54;;;;;;;;;8.33;8.33;22.90;38.20;;;;;;5094111;28;11404;-80
2022/07/12 08:25:20;;;;;;;;;7.67;7.67;22.80;38.70;;;;;;5093789;28;8857;-80
2022/07/12 08:27:46;;;;;;;;;8.33;8.33;22.80;38.20;;;;;;5094326;28;8783;-80
2022/07/12 08:30:12;;;;;;;;;5.67;4.67;23.00;38.20;;;;;;5094291;28;8865;-80
2022/07/12 08:32:43;;;;;;;;;6.33;6.33;23.00;38.10;;;;;;5094088;28;8788;-79
2022/07/12 08:35:09;;;;;;;;;7.67;7.67;23.20;37.80;;;;;;5094082;28;8776;-79
2022/07/12 08:37:35;;;;;;;;;8.33;8.33;23.30;37.70;;;;;;5093997;28;11394;-80
2022/07/12 08:40:01;;;;;;;;;7.67;7.67;23.30;37.40;;;;;;5094088;28;9398;-79
2022/07/12 08:42:26;;;;;;;;;8.33;8.00;23.00;36.80;;;;;;5096251;28;8764;-79
2022/07/12 08:44:56;;;;;;;;;7.33;7.00;23.00;37.10;;;;;;5097879;28;8776;-80
2022/07/12 08:47:22;;;;;;;;;7.67;7.67;23.10;36.80;;;;;;5097489;28;8803;-80
2022/07/12 08:50:13;;;;;;;;;7.67;7.67;23.30;36.80;;;;;;5097761;28;11481;-79
2022/07/12 08:52:50;;;;;;;;;8.67;7.67;23.30;37.10;;;;;;5097512;28;11397;-80
2022/07/12 08:55:34;;;;;;;;;8.00;7.00;23.50;36.90;;;;;;5097517;28;11383;-80
2022/07/12 08:58:03;;;;;;;;;7.33;7.33;23.40;35.80;;;;;;5097707;28;11398;-81
2022/07/12 09:00:30;;;;;;;;;6.33;6.33;23.50;34.70;;;;;;5097566;28;12130;-81
2022/07/12 09:03:01;;;;;;;;;8.00;8.00;23.60;34.10;;;;;;5097419;28;11398;-80
2022/07/12 09:05:29;;;;;;;;;7.67;7.33;23.60;34.70;;;;;;5097266;28;11445;-81
2022/07/12 09:08:28;;;;;;;;;9.33;8.67;23.90;34.70;;;;;;5097500;28;11367;-81
2022/07/12 09:11:02;;;;;;;;;7.00;7.00;23.90;34.40;;;;;;5079187;28;11409;-81
2022/07/12 09:13:49;;;;;;;;;5.33;5.33;24.10;33.90;;;;;;5097078;28;11428;-82
2022/07/12 09:16:26;;;;;;;;;5.33;5.33;24.20;33.40;;;;;;5083280;28;11401;-81
2022/07/12 09:19:11;;;;;;;;;8.00;8.00;24.00;33.30;;;;;;5097062;28;11422;-81
2022/07/12 09:21:36;;;;;;;;;6.00;6.00;24.10;33.40;;;;;;5079113;28;11495;-81
2022/07/12 09:24:02;;;;;;;;;6.67;6.67;23.90;33.80;;;;;;5096996;28;11365;-81
2022/07/12 09:26:33;;;;;;;;;6.00;6.00;23.70;33.50;;;;;;5096942;28;8814;-81
2022/07/12 09:29:11;;;;;;;;;7.00;7.00;23.80;33.50;;;;;;5097125;28;8778;-82
2022/07/12 09:37:14;;;;;;;;;9.67;7.67;24.50;32.90;;;;;;5096731;28;11355;-81
2022/07/12 09:39:41;;;;;;;;;6.00;6.00;24.60;33.30;;;;;;5096822;28;11417;-81
2022/07/12 09:42:11;;;;;;;;;7.00;7.00;24.60;33.30;;;;;;5096659;28;8807;-81
2022/07/12 09:44:40;;;;;;;;;6.00;6.00;24.70;32.60;;;;;;5096798;28;12490;-82
2022/07/12 09:47:13;;;;;;;;;6.75;6.75;24.90;31.90;;;;;;5096285;28;11968;-81
2022/07/12 09:49:39;;;;;;;;;9.75;9.50;24.90;31.00;;;;;;5078534;28;11533;-82
2022/07/12 09:52:06;;;;;;;;;8.00;8.00;24.90;31.10;;;;;;5096341;28;11394;-81
2022/07/12 09:54:38;;;;;;;;;4.75;4.75;25.10;30.90;;;;;;5095564;28;11469;-81
2022/07/12 09:57:30;;;;;;;;;7.00;7.00;25.10;30.00;;;;;;5078457;28;11412;-81
2022/07/12 10:00:00;;;;;;;;;8.00;8.00;25.10;30.20;;;;;;5096411;28;11375;-81
2022/07/12 10:02:27;;;;;;;;;4.75;4.75;25.20;30.40;;;;;;5096675;28;11364;-81
2022/07/12 10:04:54;;;;;;;;;7.00;7.00;25.20;30.60;;;;;;5096113;28;11388;-81
2022/07/12 10:07:21;;;;;;;;;5.00;5.00;25.30;30.30;;;;;;5096199;28;11450;-81
2022/07/12 10:09:50;;;;;;;;;5.50;5.50;25.30;31.20;;;;;;5096166;28;11396;-80
2022/07/12 10:12:20;;;;;;;;;4.00;4.00;25.10;30.30;;;;;;5096235;28;11388;-80
2022/07/12 10:14:48;;;;;;;;;6.00;6.00;24.90;29.80;;;;;;5095916;28;11397;-80
2022/07/12 10:17:22;;;;;;;;;5.00;5.00;25.00;30.00;;;;;;5078602;28;11472;-82
2022/07/12 10:19:48;;;;;;;;;8.25;7.50;25.00;30.20;;;;;;5095698;28;11450;-81
2022/07/12 10:22:21;;;;;;;;;4.00;4.00;25.10;30.10;;;;;;5095753;28;11413;-81
2022/07/12 10:24:48;;;;;;;;;5.00;5.00;25.30;30.10;;;;;;5096103;28;8772;-80
2022/07/12 10:27:14;;;;;;;;;6.00;6.00;25.10;29.80;;;;;;5095688;28;11425;-81
2022/07/12 10:29:48;;;;;;;;;6.33;6.33;25.30;29.90;;;;;;5096028;28;11395;-80
2022/07/12 10:32:35;;;;;;;;;6.33;6.33;25.30;29.60;;;;;;5096151;28;9449;-81
2022/07/12 10:35:01;;;;;;;;;6.00;6.00;25.40;29.60;;;;;;5095727;28;12167;-80
2022/07/12 10:37:28;;;;;;;;;4.25;4.25;25.70;29.90;;;;;;5095694;28;12108;-80
2022/07/12 10:40:17;;;;;;;;;10.00;8.00;25.50;29.80;;;;;;5095824;28;11423;-81
2022/07/12 10:43:02;;;;;;;;;7.00;7.00;25.30;30.10;;;;;;5095401;28;11381;-79
2022/07/12 10:45:33;;;;;;;;;10.00;8.33;25.70;30.30;;;;;;5077330;28;11420;-81
2022/07/12 10:48:01;;;;;;;;;7.00;7.00;25.70;29.80;;;;;;5095846;28;11417;-81
2022/07/12 10:50:45;;;;;;;;;7.00;6.50;25.80;29.60;;;;;;5095789;28;11542;-82
2022/07/12 10:53:23;;;;;;;;;8.25;8.25;26.10;29.60;;;;;;5095108;28;11369;-82
2022/07/12 10:56:04;;;;;;;;;6.50;6.50;26.30;29.10;;;;;;5095150;28;11403;-82
2022/07/12 10:58:37;;;;;;;;;7.00;6.00;26.30;28.60;;;;;;5095363;28;11402;-82
2022/07/12 11:01:08;;;;;;;;;6.67;6.67;26.40;28.60;;;;;;5095510;28;11376;-80
2022/07/12 11:03:40;;;;;;;;;5.00;5.00;26.40;28.30;;;;;;5095008;28;11459;-81
2022/07/12 11:06:08;;;;;;;;;8.00;6.75;26.50;28.00;;;;;;5094883;28;11437;-79
2022/07/12 11:08:53;;;;;;;;;6.50;6.00;26.50;28.60;;;;;;5077069;28;11428;-81
2022/07/12 11:11:20;;;;;;;;;6.00;6.00;26.50;28.40;;;;;;5094895;28;11400;-82
2022/07/12 11:13:46;;;;;;;;;5.50;5.50;26.50;27.60;;;;;;5095015;28;11397;-82
2022/07/12 11:16:12;;;;;;;;;13.33;12.00;26.70;27.30;;;;;;5094930;28;11513;-82
2022/07/12 11:18:38;;;;;;;;;6.00;6.00;26.90;26.80;;;;;;5094933;28;11614;-81
2022/07/12 11:21:05;;;;;;;;;6.00;6.00;26.90;26.80;;;;;;5074732;28;9430;-82
2022/07/12 11:23:32;;;;;;;;;11.75;11.75;26.80;29.20;;;;;;5074946;28;11466;-81
2022/07/12 11:26:00;;;;;;;;;6.25;6.25;27.00;30.00;;;;;;5074510;28;11567;-82
2022/07/12 11:28:28;;;;;;;;;8.00;8.00;27.10;30.00;;;;;;5074317;28;11432;-81
2022/07/12 11:31:00;;;;;;;;;7.00;7.00;27.30;29.90;;;;;;5074158;28;11452;-81
2022/07/12 11:33:32;;;;;;;;;8.00;8.00;27.20;29.80;;;;;;5074594;28;11436;-80
2022/07/12 11:35:59;;;;;;;;;7.25;7.25;27.20;30.20;;;;;;5074414;28;11450;-81
2022/07/12 11:38:28;;;;;;;;;7.25;6.75;26.90;30.60;;;;;;5074394;28;11421;-80
2022/07/12 11:41:01;;;;;;;;;7.50;6.00;26.50;31.70;;;;;;5074276;28;12194;-80
2022/07/12 11:43:28;;;;;;;;;6.00;6.00;26.60;31.50;;;;;;5074628;28;11823;-80
2022/07/12 11:45:55;;;;;;;;;7.25;7.25;26.80;30.90;;;;;;5074032;28;11466;-80
2022/07/12 11:48:22;;;;;;;;;6.25;6.25;27.00;30.20;;;;;;5074313;28;11534;-81
2022/07/12 11:50:51;;;;;;;;;7.00;7.00;27.40;29.70;;;;;;5074289;28;11455;-81
2022/07/12 11:53:24;;;;;;;;;8.00;8.00;27.30;30.20;;;;;;5074059;28;11449;-82
2022/07/12 11:55:52;;;;;;;;;5.00;5.00;27.80;30.10;;;;;;5074647;28;11447;-81
2022/07/12 11:58:20;;;;;;;;;4.75;4.75;29.20;28.20;;;;;;5074031;28;11450;-81
2022/07/12 12:00:47;;;;;;;;;5.00;4.25;31.10;26.10;;;;;;5074083;28;11438;-82
2022/07/12 12:03:16;;;;;;;;;4.00;4.00;32.40;24.80;;;;;;5074099;28;11405;-82
2022/07/12 12:05:42;;;;;;;;;5.25;5.25;33.00;24.30;;;;;;5073845;28;11459;-82
2022/07/12 12:08:12;;;;;;;;;4.50;4.50;33.60;23.40;;;;;;5074535;28;11431;-82
2022/07/12 12:10:43;;;;;;;;;4.00;4.00;34.10;22.10;;;;;;5073981;28;12096;-82
2022/07/12 12:13:16;;;;;;;;;5.00;5.00;34.10;22.40;;;;;;5074039;28;11428;-82
2022/07/12 12:15:58;;;;;;;;;4.50;4.00;33.90;22.00;;;;;;5073941;28;11430;-82
2022/07/12 12:18:38;;;;;;;;;4.75;4.75;33.90;21.80;;;;;;5078110;28;11488;-82
2022/07/12 12:21:05;;;;;;;;;5.00;5.00;33.70;22.50;;;;;;5078070;28;11579;-82
2022/07/12 12:23:32;;;;;;;;;3.25;3.25;33.60;22.70;;;;;;5077730;28;11426;-83
2022/07/12 12:26:20;;;;;;;;;5.00;5.00;34.40;22.00;;;;;;5077659;28;11487;-82
2022/07/12 12:28:51;;;;;;;;;4.00;4.00;35.60;21.60;;;;;;5077699;28;11450;-83
2022/07/12 12:31:19;;;;;;;;;3.50;3.50;37.00;20.50;;;;;;5077701;28;11547;-81
2022/07/12 12:33:52;;;;;;;;;1.00;1.00;36.40;19.80;;;;;;5077641;28;11430;-82
2022/07/12 12:36:23;;;;;;;;;3.00;3.00;36.00;20.00;;;;;;5077844;28;11428;-83
2022/07/12 12:38:56;;;;;;;;;4.00;4.00;36.30;20.30;;;;;;5077582;28;11457;-83
2022/07/12 12:41:24;;;;;;;;;3.50;3.50;36.70;20.20;;;;;;5077713;28;11416;-82
2022/07/12 12:44:04;;;;;;;;;3.25;3.25;37.10;19.80;;;;;;5077355;28;11494;-83
2022/07/12 12:49:50;;;;;;;;;3.00;3.00;37.90;19.60;;;;;;5075590;28;11556;-82
2022/07/12 12:52:17;;;;;;;;;2.00;2.00;38.10;20.30;;;;;;5077249;28;11557;-82
2022/07/12 12:54:44;;;;;;;;;2.75;2.75;37.40;19.00;;;;;;5077405;28;11413;-82
2022/07/12 12:57:11;;;;;;;;;3.25;3.25;38.10;19.50;;;;;;5077209;28;11401;-83
2022/07/12 12:59:37;;;;;;;;;3.00;3.00;39.50;18.60;;;;;;5077147;28;11414;-84
2022/07/12 13:02:04;;;;;;;;;2.00;2.00;40.40;18.10;;;;;;5077054;28;11517;-83
2022/07/12 13:04:31;;;;;;;;;3.00;3.00;40.70;17.00;;;;;;5077133;28;11586;-83